sensor_id;sensor_type;location;lat;lon;timestamp;P1;durP1;ratioP1;P2;durP2;ratioP2
64986;SDS011;67903;52.108;9.358;2023-08-07T00:00:10;11.13;;;8.65;;
64986;SDS011;67903;52.108;9.358;2023-08-07T00:02:56;13.45;;;8.68;;
64986;SDS011;67903;52.108;9.358;2023-08-07T00:05:44;13.23;;;8.75;;
64986;SDS011;67903;52.108;9.358;2023-08-07T00:08:30;12.07;;;8.57;;
64986;SDS011;67903;52.108;9.358;2023-08-07T00:11:16;11.13;;;8.70;;
64986;SDS011;67903;52.108;9.358;2023-08-07T00:14:01;12.30;;;8.63;;
64986;SDS011;67903;52.108;9.358;2023-08-07T00:16:47;13.27;;;8.13;;
64986;SDS011;67903;52.108;9.358;2023-08-07T00:19:32;11.05;;;8.23;;
64986;SDS011;67903;52.108;9.358;2023-08-07T00:22:18;9.65;;;8.02;;
64986;SDS011;67903;52.108;9.358;2023-08-07T00:25:04;10.15;;;7.40;;
64986;SDS011;67903;52.108;9.358;2023-08-07T00:27:49;8.85;;;7.55;;
64986;SDS011;67903;52.108;9.358;2023-08-07T00:30:35;10.43;;;8.18;;
64986;SDS011;67903;52.108;9.358;2023-08-07T00:33:20;10.77;;;7.90;;
64986;SDS011;67903;52.108;9.358;2023-08-07T00:36:06;12.07;;;7.80;;
64986;SDS011;67903;52.108;9.358;2023-08-07T00:38:53;9.70;;;7.30;;
64986;SDS011;67903;52.108;9.358;2023-08-07T00:41:39;10.52;;;6.65;;
64986;SDS011;67903;52.108;9.358;2023-08-07T00:44:24;8.15;;;7.20;;
64986;SDS011;67903;52.108;9.358;2023-08-07T00:47:10;10.70;;;6.75;;
64986;SDS011;67903;52.108;9.358;2023-08-07T00:49:57;9.13;;;6.40;;
64986;SDS011;67903;52.108;9.358;2023-08-07T00:52:43;8.20;;;6.82;;
64986;SDS011;67903;52.108;9.358;2023-08-07T00:55:29;11.32;;;7.22;;
64986;SDS011;67903;52.108;9.358;2023-08-07T00:58:14;12.25;;;7.18;;
64986;SDS011;67903;52.108;9.358;2023-08-07T01:01:00;9.90;;;7.28;;
64986;SDS011;67903;52.108;9.358;2023-08-07T01:03:46;6.82;;;6.13;;
64986;SDS011;67903;52.108;9.358;2023-08-07T01:06:32;8.25;;;6.28;;
64986;SDS011;67903;52.108;9.358;2023-08-07T01:09:17;6.68;;;5.95;;
64986;SDS011;67903;52.108;9.358;2023-08-07T01:15:18;9.38;;;5.95;;
64986;SDS011;67903;52.108;9.358;2023-08-07T01:18:10;8.02;;;6.03;;
64986;SDS011;67903;52.108;9.358;2023-08-07T01:20:56;7.05;;;5.65;;
64986;SDS011;67903;52.108;9.358;2023-08-07T01:23:41;7.55;;;5.30;;
64986;SDS011;67903;52.108;9.358;2023-08-07T01:26:27;6.78;;;5.68;;
64986;SDS011;67903;52.108;9.358;2023-08-07T01:29:15;7.50;;;5.63;;
64986;SDS011;67903;52.108;9.358;2023-08-07T01:32:12;8.35;;;5.68;;
64986;SDS011;67903;52.108;9.358;2023-08-07T01:35:01;6.03;;;5.30;;
64986;SDS011;67903;52.108;9.358;2023-08-07T01:37:50;9.75;;;5.85;;
64986;SDS011;67903;52.108;9.358;2023-08-07T01:40:39;11.85;;;6.13;;
64986;SDS011;67903;52.108;9.358;2023-08-07T01:43:25;8.65;;;5.75;;
64986;SDS011;67903;52.108;9.358;2023-08-07T01:46:11;7.57;;;5.72;;
64986;SDS011;67903;52.108;9.358;2023-08-07T01:48:57;6.28;;;5.53;;
64986;SDS011;67903;52.108;9.358;2023-08-07T01:51:43;8.43;;;5.95;;
64986;SDS011;67903;52.108;9.358;2023-08-07T01:54:28;7.28;;;6.00;;
64986;SDS011;67903;52.108;9.358;2023-08-07T01:57:13;7.55;;;6.05;;
64986;SDS011;67903;52.108;9.358;2023-08-07T01:59:59;9.70;;;6.22;;
64986;SDS011;67903;52.108;9.358;2023-08-07T02:02:45;10.15;;;6.20;;
64986;SDS011;67903;52.108;9.358;2023-08-07T02:05:32;6.55;;;5.95;;
64986;SDS011;67903;52.108;9.358;2023-08-07T02:08:19;8.43;;;5.30;;
64986;SDS011;67903;52.108;9.358;2023-08-07T02:11:05;6.18;;;5.50;;
64986;SDS011;67903;52.108;9.358;2023-08-07T02:13:50;8.07;;;5.28;;
64986;SDS011;67903;52.108;9.358;2023-08-07T02:16:36;8.15;;;5.65;;
64986;SDS011;67903;52.108;9.358;2023-08-07T02:19:21;6.88;;;5.70;;
64986;SDS011;67903;52.108;9.358;2023-08-07T02:22:07;6.85;;;5.10;;
64986;SDS011;67903;52.108;9.358;2023-08-07T02:24:52;7.57;;;5.80;;
64986;SDS011;67903;52.108;9.358;2023-08-07T02:27:38;6.20;;;5.10;;
64986;SDS011;67903;52.108;9.358;2023-08-07T02:30:24;6.82;;;5.05;;
64986;SDS011;67903;52.108;9.358;2023-08-07T02:33:09;5.03;;;4.53;;
64986;SDS011;67903;52.108;9.358;2023-08-07T02:35:55;7.00;;;4.65;;
64986;SDS011;67903;52.108;9.358;2023-08-07T02:38:41;6.40;;;4.68;;
64986;SDS011;67903;52.108;9.358;2023-08-07T02:41:26;6.85;;;4.88;;
64986;SDS011;67903;52.108;9.358;2023-08-07T02:44:12;7.53;;;4.60;;
64986;SDS011;67903;52.108;9.358;2023-08-07T02:46:57;7.60;;;5.18;;
64986;SDS011;67903;52.108;9.358;2023-08-07T02:49:43;8.00;;;4.93;;
64986;SDS011;67903;52.108;9.358;2023-08-07T02:52:29;7.13;;;4.85;;
64986;SDS011;67903;52.108;9.358;2023-08-07T02:55:14;5.15;;;4.60;;
64986;SDS011;67903;52.108;9.358;2023-08-07T02:58:00;7.60;;;4.90;;
64986;SDS011;67903;52.108;9.358;2023-08-07T03:00:45;5.28;;;4.45;;
64986;SDS011;67903;52.108;9.358;2023-08-07T03:03:31;6.60;;;4.72;;
64986;SDS011;67903;52.108;9.358;2023-08-07T03:06:16;6.40;;;4.40;;
64986;SDS011;67903;52.108;9.358;2023-08-07T03:09:03;5.65;;;5.13;;
64986;SDS011;67903;52.108;9.358;2023-08-07T03:11:48;7.43;;;5.05;;
64986;SDS011;67903;52.108;9.358;2023-08-07T03:14:34;7.95;;;5.10;;
64986;SDS011;67903;52.108;9.358;2023-08-07T03:17:19;5.53;;;4.95;;
64986;SDS011;67903;52.108;9.358;2023-08-07T03:20:06;10.27;;;5.45;;
64986;SDS011;67903;52.108;9.358;2023-08-07T03:22:51;7.10;;;4.38;;
64986;SDS011;67903;52.108;9.358;2023-08-07T03:25:37;6.72;;;5.00;;
64986;SDS011;67903;52.108;9.358;2023-08-07T03:28:23;6.63;;;4.57;;
64986;SDS011;67903;52.108;9.358;2023-08-07T03:31:08;8.20;;;5.20;;
64986;SDS011;67903;52.108;9.358;2023-08-07T03:33:55;5.82;;;4.32;;
64986;SDS011;67903;52.108;9.358;2023-08-07T03:36:40;5.72;;;4.35;;
64986;SDS011;67903;52.108;9.358;2023-08-07T03:39:26;7.20;;;4.20;;
64986;SDS011;67903;52.108;9.358;2023-08-07T03:42:11;6.95;;;4.97;;
64986;SDS011;67903;52.108;9.358;2023-08-07T03:44:57;5.88;;;4.30;;
64986;SDS011;67903;52.108;9.358;2023-08-07T03:47:43;7.13;;;4.53;;
64986;SDS011;67903;52.108;9.358;2023-08-07T03:50:28;6.32;;;4.65;;
64986;SDS011;67903;52.108;9.358;2023-08-07T03:53:15;5.57;;;3.97;;
64986;SDS011;67903;52.108;9.358;2023-08-07T03:56:04;4.95;;;4.50;;
64986;SDS011;67903;52.108;9.358;2023-08-07T03:58:51;6.30;;;4.07;;
64986;SDS011;67903;52.108;9.358;2023-08-07T04:01:38;6.05;;;4.05;;
64986;SDS011;67903;52.108;9.358;2023-08-07T04:04:24;4.97;;;4.13;;
64986;SDS011;67903;52.108;9.358;2023-08-07T04:07:09;8.73;;;4.00;;
64986;SDS011;67903;52.108;9.358;2023-08-07T04:09:55;7.13;;;4.05;;
64986;SDS011;67903;52.108;9.358;2023-08-07T04:12:41;5.57;;;4.03;;
64986;SDS011;67903;52.108;9.358;2023-08-07T04:15:26;6.47;;;4.18;;
64986;SDS011;67903;52.108;9.358;2023-08-07T04:18:12;7.47;;;4.43;;
64986;SDS011;67903;52.108;9.358;2023-08-07T04:20:57;6.78;;;4.13;;
64986;SDS011;67903;52.108;9.358;2023-08-07T04:23:43;4.78;;;3.70;;
64986;SDS011;67903;52.108;9.358;2023-08-07T04:26:29;5.15;;;4.50;;
64986;SDS011;67903;52.108;9.358;2023-08-07T04:29:14;7.75;;;4.80;;
64986;SDS011;67903;52.108;9.358;2023-08-07T04:32:00;5.25;;;3.80;;
64986;SDS011;67903;52.108;9.358;2023-08-07T04:34:45;6.13;;;4.55;;
64986;SDS011;67903;52.108;9.358;2023-08-07T04:37:31;5.82;;;3.53;;
64986;SDS011;67903;52.108;9.358;2023-08-07T04:40:16;8.45;;;3.80;;
64986;SDS011;67903;52.108;9.358;2023-08-07T04:43:02;5.65;;;4.93;;
64986;SDS011;67903;52.108;9.358;2023-08-07T04:45:48;5.40;;;4.90;;
64986;SDS011;67903;52.108;9.358;2023-08-07T04:48:34;6.80;;;4.75;;
64986;SDS011;67903;52.108;9.358;2023-08-07T04:51:19;5.20;;;4.50;;
64986;SDS011;67903;52.108;9.358;2023-08-07T04:54:05;5.78;;;4.50;;
64986;SDS011;67903;52.108;9.358;2023-08-07T04:56:50;5.60;;;4.47;;
64986;SDS011;67903;52.108;9.358;2023-08-07T04:59:36;6.57;;;4.95;;
64986;SDS011;67903;52.108;9.358;2023-08-07T05:02:21;5.78;;;4.30;;
64986;SDS011;67903;52.108;9.358;2023-08-07T05:05:07;4.15;;;3.75;;
64986;SDS011;67903;52.108;9.358;2023-08-07T05:07:54;7.63;;;4.30;;
64986;SDS011;67903;52.108;9.358;2023-08-07T05:10:40;5.60;;;5.10;;
64986;SDS011;67903;52.108;9.358;2023-08-07T05:13:26;7.03;;;4.63;;
64986;SDS011;67903;52.108;9.358;2023-08-07T05:16:11;4.78;;;3.97;;
64986;SDS011;67903;52.108;9.358;2023-08-07T05:18:57;5.97;;;4.32;;
64986;SDS011;67903;52.108;9.358;2023-08-07T05:21:42;7.40;;;5.53;;
64986;SDS011;67903;52.108;9.358;2023-08-07T05:24:28;5.47;;;4.10;;
64986;SDS011;67903;52.108;9.358;2023-08-07T05:27:19;5.57;;;4.90;;
64986;SDS011;67903;52.108;9.358;2023-08-07T05:30:05;5.88;;;5.28;;
64986;SDS011;67903;52.108;9.358;2023-08-07T05:32:51;5.03;;;4.63;;
64986;SDS011;67903;52.108;9.358;2023-08-07T05:35:37;5.90;;;4.95;;
64986;SDS011;67903;52.108;9.358;2023-08-07T05:38:23;6.63;;;4.50;;
64986;SDS011;67903;52.108;9.358;2023-08-07T05:41:09;5.38;;;4.53;;
64986;SDS011;67903;52.108;9.358;2023-08-07T05:43:54;5.05;;;4.40;;
64986;SDS011;67903;52.108;9.358;2023-08-07T05:46:40;6.78;;;4.15;;
64986;SDS011;67903;52.108;9.358;2023-08-07T05:49:25;4.82;;;4.43;;
64986;SDS011;67903;52.108;9.358;2023-08-07T05:52:11;6.45;;;4.65;;
64986;SDS011;67903;52.108;9.358;2023-08-07T05:54:56;5.03;;;4.10;;
64986;SDS011;67903;52.108;9.358;2023-08-07T05:57:42;5.30;;;4.20;;
64986;SDS011;67903;52.108;9.358;2023-08-07T06:00:27;7.75;;;4.65;;
64986;SDS011;67903;52.108;9.358;2023-08-07T06:03:13;4.75;;;3.97;;
64986;SDS011;67903;52.108;9.358;2023-08-07T06:05:59;4.45;;;4.03;;
64986;SDS011;67903;52.108;9.358;2023-08-07T06:08:44;5.03;;;3.95;;
64986;SDS011;67903;52.108;9.358;2023-08-07T06:11:30;4.95;;;4.10;;
64986;SDS011;67903;52.108;9.358;2023-08-07T06:14:15;4.63;;;3.90;;
64986;SDS011;67903;52.108;9.358;2023-08-07T06:17:01;4.82;;;3.63;;
64986;SDS011;67903;52.108;9.358;2023-08-07T06:19:47;4.57;;;3.47;;
64986;SDS011;67903;52.108;9.358;2023-08-07T06:22:33;4.25;;;3.40;;
64986;SDS011;67903;52.108;9.358;2023-08-07T06:25:18;5.75;;;3.78;;
64986;SDS011;67903;52.108;9.358;2023-08-07T06:28:04;3.70;;;3.08;;
64986;SDS011;67903;52.108;9.358;2023-08-07T06:30:50;5.05;;;3.67;;
64986;SDS011;67903;52.108;9.358;2023-08-07T06:33:35;6.07;;;3.50;;
64986;SDS011;67903;52.108;9.358;2023-08-07T06:36:21;3.53;;;3.10;;
64986;SDS011;67903;52.108;9.358;2023-08-07T06:39:07;6.72;;;5.25;;
64986;SDS011;67903;52.108;9.358;2023-08-07T06:41:52;7.35;;;3.20;;
64986;SDS011;67903;52.108;9.358;2023-08-07T06:44:44;14.23;;;4.82;;
64986;SDS011;67903;52.108;9.358;2023-08-07T06:47:30;8.45;;;2.97;;
64986;SDS011;67903;52.108;9.358;2023-08-07T06:50:15;4.05;;;3.10;;
64986;SDS011;67903;52.108;9.358;2023-08-07T06:53:00;5.13;;;3.10;;
64986;SDS011;67903;52.108;9.358;2023-08-07T06:55:46;4.55;;;2.95;;
64986;SDS011;67903;52.108;9.358;2023-08-07T06:58:31;5.53;;;2.58;;
64986;SDS011;67903;52.108;9.358;2023-08-07T07:01:17;5.35;;;3.05;;
64986;SDS011;67903;52.108;9.358;2023-08-07T07:04:03;10.18;;;3.53;;
64986;SDS011;67903;52.108;9.358;2023-08-07T07:06:49;5.43;;;3.13;;
64986;SDS011;67903;52.108;9.358;2023-08-07T07:09:34;6.22;;;3.63;;
64986;SDS011;67903;52.108;9.358;2023-08-07T07:12:20;7.15;;;3.80;;
64986;SDS011;67903;52.108;9.358;2023-08-07T07:15:06;7.53;;;3.78;;
64986;SDS011;67903;52.108;9.358;2023-08-07T07:17:51;7.35;;;3.88;;
64986;SDS011;67903;52.108;9.358;2023-08-07T07:20:37;4.20;;;3.47;;
64986;SDS011;67903;52.108;9.358;2023-08-07T07:23:22;5.13;;;3.17;;
64986;SDS011;67903;52.108;9.358;2023-08-07T07:26:08;5.53;;;2.92;;
64986;SDS011;67903;52.108;9.358;2023-08-07T07:28:53;4.45;;;3.00;;
64986;SDS011;67903;52.108;9.358;2023-08-07T07:31:39;3.95;;;3.30;;
64986;SDS011;67903;52.108;9.358;2023-08-07T07:34:24;5.47;;;3.10;;
64986;SDS011;67903;52.108;9.358;2023-08-07T07:37:10;4.80;;;3.40;;
64986;SDS011;67903;52.108;9.358;2023-08-07T07:39:56;4.60;;;3.47;;
64986;SDS011;67903;52.108;9.358;2023-08-07T07:42:41;5.97;;;3.00;;
64986;SDS011;67903;52.108;9.358;2023-08-07T07:45:27;3.40;;;2.92;;
64986;SDS011;67903;52.108;9.358;2023-08-07T07:48:12;6.35;;;2.70;;
64986;SDS011;67903;52.108;9.358;2023-08-07T07:50:58;4.15;;;2.50;;
64986;SDS011;67903;52.108;9.358;2023-08-07T07:53:45;6.63;;;2.83;;
64986;SDS011;67903;52.108;9.358;2023-08-07T07:56:42;4.75;;;2.60;;
64986;SDS011;67903;52.108;9.358;2023-08-07T07:59:28;3.78;;;2.70;;
64986;SDS011;67903;52.108;9.358;2023-08-07T08:02:14;4.45;;;2.60;;
64986;SDS011;67903;52.108;9.358;2023-08-07T08:05:01;5.07;;;3.20;;
64986;SDS011;67903;52.108;9.358;2023-08-07T08:07:46;5.78;;;2.70;;
64986;SDS011;67903;52.108;9.358;2023-08-07T08:10:32;3.88;;;2.20;;
64986;SDS011;67903;52.108;9.358;2023-08-07T08:13:17;3.72;;;2.60;;
64986;SDS011;67903;52.108;9.358;2023-08-07T08:16:03;6.80;;;2.63;;
64986;SDS011;67903;52.108;9.358;2023-08-07T08:18:49;5.00;;;2.65;;
64986;SDS011;67903;52.108;9.358;2023-08-07T08:21:35;4.72;;;2.60;;
64986;SDS011;67903;52.108;9.358;2023-08-07T08:24:20;6.93;;;2.28;;
64986;SDS011;67903;52.108;9.358;2023-08-07T08:27:06;3.83;;;2.30;;
64986;SDS011;67903;52.108;9.358;2023-08-07T08:29:51;4.45;;;2.00;;
64986;SDS011;67903;52.108;9.358;2023-08-07T08:32:37;3.13;;;2.20;;
64986;SDS011;67903;52.108;9.358;2023-08-07T08:35:24;3.42;;;2.10;;
64986;SDS011;67903;52.108;9.358;2023-08-07T08:38:10;3.10;;;2.00;;
64986;SDS011;67903;52.108;9.358;2023-08-07T08:40:56;2.67;;;2.00;;
64986;SDS011;67903;52.108;9.358;2023-08-07T08:43:42;5.72;;;2.17;;
64986;SDS011;67903;52.108;9.358;2023-08-07T08:46:30;4.13;;;2.10;;
64986;SDS011;67903;52.108;9.358;2023-08-07T08:49:16;2.88;;;1.88;;
64986;SDS011;67903;52.108;9.358;2023-08-07T08:52:12;2.13;;;1.90;;
64986;SDS011;67903;52.108;9.358;2023-08-07T08:54:58;3.65;;;1.50;;
64986;SDS011;67903;52.108;9.358;2023-08-07T08:57:44;2.00;;;1.45;;
64986;SDS011;67903;52.108;9.358;2023-08-07T09:00:29;4.00;;;1.77;;
64986;SDS011;67903;52.108;9.358;2023-08-07T09:03:15;2.55;;;1.85;;
64986;SDS011;67903;52.108;9.358;2023-08-07T09:06:04;2.25;;;1.80;;
64986;SDS011;67903;52.108;9.358;2023-08-07T09:08:51;3.00;;;1.77;;
64986;SDS011;67903;52.108;9.358;2023-08-07T09:11:38;2.25;;;1.95;;
64986;SDS011;67903;52.108;9.358;2023-08-07T09:14:27;3.42;;;1.90;;
64986;SDS011;67903;52.108;9.358;2023-08-07T09:17:15;2.35;;;1.70;;
64986;SDS011;67903;52.108;9.358;2023-08-07T09:20:01;2.83;;;1.30;;
64986;SDS011;67903;52.108;9.358;2023-08-07T09:22:49;2.67;;;1.88;;
64986;SDS011;67903;52.108;9.358;2023-08-07T09:25:34;6.80;;;1.85;;
64986;SDS011;67903;52.108;9.358;2023-08-07T09:28:20;4.40;;;1.83;;
64986;SDS011;67903;52.108;9.358;2023-08-07T09:31:06;4.22;;;2.00;;
64986;SDS011;67903;52.108;9.358;2023-08-07T09:33:53;4.28;;;1.88;;
64986;SDS011;67903;52.108;9.358;2023-08-07T09:36:40;3.75;;;2.17;;
64986;SDS011;67903;52.108;9.358;2023-08-07T09:39:26;5.68;;;2.25;;
64986;SDS011;67903;52.108;9.358;2023-08-07T09:42:15;4.63;;;2.25;;
64986;SDS011;67903;52.108;9.358;2023-08-07T09:45:02;4.15;;;2.20;;
64986;SDS011;67903;52.108;9.358;2023-08-07T09:47:56;4.72;;;2.17;;
64986;SDS011;67903;52.108;9.358;2023-08-07T09:50:45;4.82;;;1.85;;
64986;SDS011;67903;52.108;9.358;2023-08-07T09:53:31;4.72;;;2.13;;
64986;SDS011;67903;52.108;9.358;2023-08-07T09:56:16;3.80;;;1.90;;
64986;SDS011;67903;52.108;9.358;2023-08-07T09:59:03;4.80;;;1.88;;
64986;SDS011;67903;52.108;9.358;2023-08-07T10:01:49;3.65;;;2.13;;
64986;SDS011;67903;52.108;9.358;2023-08-07T10:04:35;3.58;;;1.70;;
64986;SDS011;67903;52.108;9.358;2023-08-07T10:07:21;2.50;;;1.52;;
64986;SDS011;67903;52.108;9.358;2023-08-07T10:10:08;5.60;;;1.67;;
64986;SDS011;67903;52.108;9.358;2023-08-07T10:12:54;6.07;;;2.05;;
64986;SDS011;67903;52.108;9.358;2023-08-07T10:15:41;4.32;;;2.58;;
64986;SDS011;67903;52.108;9.358;2023-08-07T10:18:28;4.32;;;2.38;;
64986;SDS011;67903;52.108;9.358;2023-08-07T10:21:13;5.90;;;3.05;;
64986;SDS011;67903;52.108;9.358;2023-08-07T10:23:59;7.82;;;2.65;;
64986;SDS011;67903;52.108;9.358;2023-08-07T10:26:48;4.97;;;2.15;;
64986;SDS011;67903;52.108;9.358;2023-08-07T10:29:34;6.45;;;1.88;;
64986;SDS011;67903;52.108;9.358;2023-08-07T10:32:21;3.17;;;1.80;;
64986;SDS011;67903;52.108;9.358;2023-08-07T10:35:08;3.85;;;2.10;;
64986;SDS011;67903;52.108;9.358;2023-08-07T10:37:54;6.65;;;2.40;;
64986;SDS011;67903;52.108;9.358;2023-08-07T10:43:48;4.80;;;1.70;;
64986;SDS011;67903;52.108;9.358;2023-08-07T10:46:46;6.70;;;2.53;;
64986;SDS011;67903;52.108;9.358;2023-08-07T10:49:40;3.13;;;1.67;;
64986;SDS011;67903;52.108;9.358;2023-08-07T10:52:26;3.40;;;2.22;;
64986;SDS011;67903;52.108;9.358;2023-08-07T10:55:13;3.15;;;1.98;;
64986;SDS011;67903;52.108;9.358;2023-08-07T10:58:03;8.38;;;2.28;;
64986;SDS011;67903;52.108;9.358;2023-08-07T11:00:48;2.95;;;1.98;;
64986;SDS011;67903;52.108;9.358;2023-08-07T11:03:35;2.47;;;1.60;;
64986;SDS011;67903;52.108;9.358;2023-08-07T11:06:22;3.40;;;1.50;;
64986;SDS011;67903;52.108;9.358;2023-08-07T11:09:17;4.50;;;1.80;;
64986;SDS011;67903;52.108;9.358;2023-08-07T11:12:03;5.35;;;1.70;;
64986;SDS011;67903;52.108;9.358;2023-08-07T11:14:49;6.28;;;1.70;;
64986;SDS011;67903;52.108;9.358;2023-08-07T11:17:35;4.00;;;1.67;;
64986;SDS011;67903;52.108;9.358;2023-08-07T11:20:20;3.40;;;1.35;;
64986;SDS011;67903;52.108;9.358;2023-08-07T11:23:06;3.53;;;1.60;;
64986;SDS011;67903;52.108;9.358;2023-08-07T11:25:52;4.68;;;1.58;;
64986;SDS011;67903;52.108;9.358;2023-08-07T11:28:37;3.97;;;1.50;;
64986;SDS011;67903;52.108;9.358;2023-08-07T11:31:23;5.80;;;2.00;;
64986;SDS011;67903;52.108;9.358;2023-08-07T11:34:10;2.95;;;1.80;;
64986;SDS011;67903;52.108;9.358;2023-08-07T11:36:56;3.80;;;1.60;;
64986;SDS011;67903;52.108;9.358;2023-08-07T11:39:43;2.67;;;1.50;;
64986;SDS011;67903;52.108;9.358;2023-08-07T11:42:29;3.08;;;1.60;;
64986;SDS011;67903;52.108;9.358;2023-08-07T11:45:14;4.57;;;1.60;;
64986;SDS011;67903;52.108;9.358;2023-08-07T11:48:00;5.35;;;1.73;;
64986;SDS011;67903;52.108;9.358;2023-08-07T11:50:47;1.85;;;1.52;;
64986;SDS011;67903;52.108;9.358;2023-08-07T11:53:33;2.85;;;1.73;;
64986;SDS011;67903;52.108;9.358;2023-08-07T11:56:20;3.97;;;2.08;;
64986;SDS011;67903;52.108;9.358;2023-08-07T11:59:06;4.63;;;1.70;;
64986;SDS011;67903;52.108;9.358;2023-08-07T12:01:52;4.10;;;2.00;;
64986;SDS011;67903;52.108;9.358;2023-08-07T12:04:37;5.20;;;1.88;;
64986;SDS011;67903;52.108;9.358;2023-08-07T12:07:24;3.00;;;1.52;;
64986;SDS011;67903;52.108;9.358;2023-08-07T12:10:13;4.15;;;1.52;;
64986;SDS011;67903;52.108;9.358;2023-08-07T12:12:59;3.85;;;1.90;;
64986;SDS011;67903;52.108;9.358;2023-08-07T12:15:56;3.03;;;1.70;;
64986;SDS011;67903;52.108;9.358;2023-08-07T12:18:45;4.50;;;2.08;;
64986;SDS011;67903;52.108;9.358;2023-08-07T12:21:35;6.07;;;2.15;;
64986;SDS011;67903;52.108;9.358;2023-08-07T12:24:21;3.38;;;1.85;;
64986;SDS011;67903;52.108;9.358;2023-08-07T12:27:08;7.25;;;1.90;;
64986;SDS011;67903;52.108;9.358;2023-08-07T12:29:54;5.97;;;2.08;;
64986;SDS011;67903;52.108;9.358;2023-08-07T12:32:39;4.88;;;2.10;;
64986;SDS011;67903;52.108;9.358;2023-08-07T12:35:25;4.75;;;2.38;;
64986;SDS011;67903;52.108;9.358;2023-08-07T12:38:10;3.78;;;1.30;;
64986;SDS011;67903;52.108;9.358;2023-08-07T12:40:58;3.22;;;1.83;;
64986;SDS011;67903;52.108;9.358;2023-08-07T12:43:44;5.63;;;2.42;;
64986;SDS011;67903;52.108;9.358;2023-08-07T12:46:29;5.35;;;1.98;;
64986;SDS011;67903;52.108;9.358;2023-08-07T12:49:17;5.65;;;2.33;;
64986;SDS011;67903;52.108;9.358;2023-08-07T12:52:04;6.22;;;2.10;;
64986;SDS011;67903;52.108;9.358;2023-08-07T12:54:50;3.85;;;2.03;;
64986;SDS011;67903;52.108;9.358;2023-08-07T12:57:35;4.28;;;2.55;;
64986;SDS011;67903;52.108;9.358;2023-08-07T13:00:21;6.63;;;2.60;;
64986;SDS011;67903;52.108;9.358;2023-08-07T13:03:07;3.60;;;1.80;;
64986;SDS011;67903;52.108;9.358;2023-08-07T13:05:53;6.38;;;2.40;;
64986;SDS011;67903;52.108;9.358;2023-08-07T13:08:38;3.97;;;2.63;;
64986;SDS011;67903;52.108;9.358;2023-08-07T13:11:24;4.95;;;2.20;;
64986;SDS011;67903;52.108;9.358;2023-08-07T13:14:09;3.35;;;2.20;;
64986;SDS011;67903;52.108;9.358;2023-08-07T13:16:55;4.22;;;2.03;;
64986;SDS011;67903;52.108;9.358;2023-08-07T13:19:41;3.67;;;1.60;;
64986;SDS011;67903;52.108;9.358;2023-08-07T13:22:26;6.68;;;2.70;;
64986;SDS011;67903;52.108;9.358;2023-08-07T13:25:13;5.10;;;2.05;;
64986;SDS011;67903;52.108;9.358;2023-08-07T13:28:00;5.65;;;2.30;;
64986;SDS011;67903;52.108;9.358;2023-08-07T13:30:49;3.90;;;1.85;;
64986;SDS011;67903;52.108;9.358;2023-08-07T13:33:35;5.20;;;2.72;;
64986;SDS011;67903;52.108;9.358;2023-08-07T13:36:21;6.40;;;2.60;;
64986;SDS011;67903;52.108;9.358;2023-08-07T13:39:06;4.20;;;2.17;;
64986;SDS011;67903;52.108;9.358;2023-08-07T13:41:53;4.63;;;2.03;;
64986;SDS011;67903;52.108;9.358;2023-08-07T13:44:39;5.10;;;2.22;;
64986;SDS011;67903;52.108;9.358;2023-08-07T13:47:25;3.35;;;2.08;;
64986;SDS011;67903;52.108;9.358;2023-08-07T13:50:11;3.22;;;1.80;;
64986;SDS011;67903;52.108;9.358;2023-08-07T13:52:58;6.40;;;2.38;;
64986;SDS011;67903;52.108;9.358;2023-08-07T13:55:58;3.20;;;2.00;;
64986;SDS011;67903;52.108;9.358;2023-08-07T13:58:44;7.50;;;1.58;;
64986;SDS011;67903;52.108;9.358;2023-08-07T14:01:29;4.95;;;2.40;;
64986;SDS011;67903;52.108;9.358;2023-08-07T14:04:16;5.32;;;2.15;;
64986;SDS011;67903;52.108;9.358;2023-08-07T14:07:01;3.63;;;2.17;;
64986;SDS011;67903;52.108;9.358;2023-08-07T14:09:48;5.78;;;2.20;;
64986;SDS011;67903;52.108;9.358;2023-08-07T14:12:34;6.68;;;2.58;;
64986;SDS011;67903;52.108;9.358;2023-08-07T14:15:19;4.53;;;2.22;;
64986;SDS011;67903;52.108;9.358;2023-08-07T14:18:05;4.95;;;2.00;;
64986;SDS011;67903;52.108;9.358;2023-08-07T14:20:50;3.88;;;1.98;;
64986;SDS011;67903;52.108;9.358;2023-08-07T14:23:46;5.47;;;2.40;;
64986;SDS011;67903;52.108;9.358;2023-08-07T14:26:32;5.22;;;1.92;;
64986;SDS011;67903;52.108;9.358;2023-08-07T14:29:18;5.75;;;2.35;;
64986;SDS011;67903;52.108;9.358;2023-08-07T14:32:05;5.13;;;2.03;;
64986;SDS011;67903;52.108;9.358;2023-08-07T14:34:51;4.07;;;2.00;;
64986;SDS011;67903;52.108;9.358;2023-08-07T14:37:37;4.00;;;1.92;;
64986;SDS011;67903;52.108;9.358;2023-08-07T14:40:22;3.55;;;2.00;;
64986;SDS011;67903;52.108;9.358;2023-08-07T14:43:08;2.83;;;1.80;;
64986;SDS011;67903;52.108;9.358;2023-08-07T14:45:55;2.95;;;1.83;;
64986;SDS011;67903;52.108;9.358;2023-08-07T14:48:40;3.75;;;1.55;;
64986;SDS011;67903;52.108;9.358;2023-08-07T14:51:26;3.25;;;1.60;;
64986;SDS011;67903;52.108;9.358;2023-08-07T14:54:11;3.47;;;1.55;;
64986;SDS011;67903;52.108;9.358;2023-08-07T14:56:57;3.05;;;1.60;;
64986;SDS011;67903;52.108;9.358;2023-08-07T14:59:44;3.95;;;1.90;;
64986;SDS011;67903;52.108;9.358;2023-08-07T15:02:29;3.13;;;1.90;;
64986;SDS011;67903;52.108;9.358;2023-08-07T15:05:14;2.85;;;1.70;;
64986;SDS011;67903;52.108;9.358;2023-08-07T15:08:01;2.65;;;1.70;;
64986;SDS011;67903;52.108;9.358;2023-08-07T15:10:46;3.80;;;1.73;;
64986;SDS011;67903;52.108;9.358;2023-08-07T15:13:32;2.50;;;1.90;;
64986;SDS011;67903;52.108;9.358;2023-08-07T15:16:18;3.50;;;1.90;;
64986;SDS011;67903;52.108;9.358;2023-08-07T15:19:03;2.78;;;1.75;;
64986;SDS011;67903;52.108;9.358;2023-08-07T15:21:52;5.00;;;2.10;;
64986;SDS011;67903;52.108;9.358;2023-08-07T15:24:37;4.45;;;1.90;;
64986;SDS011;67903;52.108;9.358;2023-08-07T15:27:23;3.10;;;1.90;;
64986;SDS011;67903;52.108;9.358;2023-08-07T15:30:09;4.43;;;1.90;;
64986;SDS011;67903;52.108;9.358;2023-08-07T15:32:55;4.53;;;1.90;;
64986;SDS011;67903;52.108;9.358;2023-08-07T15:35:41;4.05;;;2.15;;
64986;SDS011;67903;52.108;9.358;2023-08-07T15:38:27;2.15;;;1.48;;
64986;SDS011;67903;52.108;9.358;2023-08-07T15:41:13;4.00;;;1.75;;
64986;SDS011;67903;52.108;9.358;2023-08-07T15:43:59;2.85;;;1.50;;
64986;SDS011;67903;52.108;9.358;2023-08-07T15:46:44;3.97;;;1.55;;
64986;SDS011;67903;52.108;9.358;2023-08-07T15:49:30;4.28;;;1.70;;
64986;SDS011;67903;52.108;9.358;2023-08-07T15:52:16;3.97;;;2.00;;
64986;SDS011;67903;52.108;9.358;2023-08-07T15:55:03;4.50;;;1.90;;
64986;SDS011;67903;52.108;9.358;2023-08-07T15:57:48;6.20;;;2.28;;
64986;SDS011;67903;52.108;9.358;2023-08-07T16:00:34;2.10;;;1.60;;
64986;SDS011;67903;52.108;9.358;2023-08-07T16:03:19;3.78;;;1.83;;
64986;SDS011;67903;52.108;9.358;2023-08-07T16:06:06;5.90;;;2.03;;
64986;SDS011;67903;52.108;9.358;2023-08-07T16:08:53;4.07;;;1.63;;
64986;SDS011;67903;52.108;9.358;2023-08-07T16:11:42;5.43;;;2.78;;
64986;SDS011;67903;52.108;9.358;2023-08-07T16:14:27;2.88;;;1.60;;
64986;SDS011;67903;52.108;9.358;2023-08-07T16:17:18;4.32;;;1.85;;
64986;SDS011;67903;52.108;9.358;2023-08-07T16:20:04;3.28;;;2.22;;
64986;SDS011;67903;52.108;9.358;2023-08-07T16:22:49;5.47;;;2.20;;
64986;SDS011;67903;52.108;9.358;2023-08-07T16:25:35;2.95;;;2.05;;
64986;SDS011;67903;52.108;9.358;2023-08-07T16:28:21;3.80;;;2.08;;
64986;SDS011;67903;52.108;9.358;2023-08-07T16:31:06;3.00;;;1.92;;
64986;SDS011;67903;52.108;9.358;2023-08-07T16:33:52;3.17;;;1.85;;
64986;SDS011;67903;52.108;9.358;2023-08-07T16:36:37;3.63;;;1.85;;
64986;SDS011;67903;52.108;9.358;2023-08-07T16:39:23;2.90;;;1.40;;
64986;SDS011;67903;52.108;9.358;2023-08-07T16:42:09;2.33;;;1.70;;
64986;SDS011;67903;52.108;9.358;2023-08-07T16:44:54;3.15;;;1.83;;
64986;SDS011;67903;52.108;9.358;2023-08-07T16:47:40;1.65;;;1.42;;